Time;durP1;ratioP1;P1;durP2;ratioP2;P2;SDS_P1;SDS_P2;PMS_P1;PMS_P2;Temp;Humidity;BMP_temperature;BMP_pressure;BME280_temperature;BME280_humidity;BME280_pressure;Samples;Min_cycle;Max_cycle;Signal;HPM_P1;HPM_P2
2022/10/25 00:00:22;;;;;;;27.02;11.95;;;;;;;;;;5109131;27;20403;-70
2022/10/25 00:02:48;;;;;;;29.25;13.07;;;;;;;;;;5125648;27;20550;-70
2022/10/25 00:05:15;;;;;;;31.63;12.30;;;;;;;;;;5118339;27;20035;-70
2022/10/25 00:07:41;;;;;;;30.65;12.98;;;;;;;;;;5121866;27;20062;-70
2022/10/25 00:10:08;;;;;;;36.03;13.65;;;;;;;;;;5118794;27;20031;-70
2022/10/25 00:12:34;;;;;;;29.98;13.07;;;;;;;;;;5102261;27;20037;-70
2022/10/25 00:15:01;;;;;;;29.08;12.68;;;;;;;;;;5117748;27;20044;-70
2022/10/25 00:17:27;;;;;;;29.50;12.60;;;;;;;;;;5110467;28;20050;-70
2022/10/25 00:19:53;;;;;;;36.10;14.20;;;;;;;;;;5112424;27;20054;-70
2022/10/25 00:22:19;;;;;;;31.50;13.27;;;;;;;;;;5117922;27;20066;-70
2022/10/25 00:24:45;;;;;;;29.75;12.13;;;;;;;;;;5118822;27;20043;-70
2022/10/25 00:27:11;;;;;;;30.35;12.43;;;;;;;;;;5100606;27;20077;-70
2022/10/25 00:29:37;;;;;;;30.80;13.30;;;;;;;;;;5102000;27;20091;-70
2022/10/25 00:32:04;;;;;;;27.85;12.55;;;;;;;;;;5117190;27;20039;-70
2022/10/25 00:34:30;;;;;;;33.65;12.13;;;;;;;;;;5120323;27;20039;-70
2022/10/25 00:36:56;;;;;;;27.75;12.23;;;;;;;;;;5117679;27;20034;-70
2022/10/25 00:39:22;;;;;;;27.08;11.52;;;;;;;;;;5117692;27;20066;-70
2022/10/25 00:41:48;;;;;;;29.20;11.40;;;;;;;;;;5120235;27;20051;-70
2022/10/25 00:44:33;;;;;;;26.05;11.60;;;;;;;;;;5121771;27;20123;-70
2022/10/25 00:46:59;;;;;;;21.23;10.30;;;;;;;;;;5124715;27;20035;-70
2022/10/25 00:49:25;;;;;;;23.33;9.90;;;;;;;;;;5096700;28;20031;-70
2022/10/25 00:51:57;;;;;;;23.38;10.48;;;;;;;;;;5129041;27;20526;-70
2022/10/25 00:54:25;;;;;;;20.75;9.93;;;;;;;;;;5120622;27;20126;-70
2022/10/25 00:56:52;;;;;;;21.15;9.77;;;;;;;;;;5117556;27;20219;-70
2022/10/25 00:59:20;;;;;;;21.23;9.75;;;;;;;;;;5131512;27;20038;-70
2022/10/25 01:01:47;;;;;;;26.52;11.00;;;;;;;;;;5118444;27;20114;-71
2022/10/25 01:04:14;;;;;;;21.40;9.25;;;;;;;;;;5134888;27;20046;-71
2022/10/25 01:06:42;;;;;;;26.55;9.63;;;;;;;;;;5125892;27;20058;-72
2022/10/25 01:09:09;;;;;;;23.48;10.13;;;;;;;;;;5116819;27;20039;-71
2022/10/25 01:11:36;;;;;;;25.20;10.43;;;;;;;;;;5116915;27;20039;-71
2022/10/25 01:14:03;;;;;;;21.83;10.40;;;;;;;;;;5129454;27;20050;-71
2022/10/25 01:16:32;;;;;;;28.83;10.32;;;;;;;;;;5126463;27;20046;-71
2022/10/25 01:18:58;;;;;;;23.20;10.30;;;;;;;;;;5116225;27;20067;-71
2022/10/25 01:21:28;;;;;;;22.65;10.77;;;;;;;;;;5117063;27;20043;-70
2022/10/25 01:23:54;;;;;;;25.15;11.05;;;;;;;;;;5117485;27;20051;-71
2022/10/25 01:26:35;;;;;;;27.35;10.60;;;;;;;;;;5118028;27;20118;-71
2022/10/25 01:29:20;;;;;;;23.27;10.85;;;;;;;;;;5113714;27;20063;-70
2022/10/25 01:31:52;;;;;;;34.10;12.45;;;;;;;;;;5091813;27;20071;-71
2022/10/25 01:34:34;;;;;;;25.25;12.18;;;;;;;;;;5133222;27;20035;-71
2022/10/25 01:37:11;;;;;;;22.15;11.85;;;;;;;;;;5124971;27;20096;-71
2022/10/25 01:39:57;;;;;;;26.75;11.43;;;;;;;;;;5096154;28;20043;-71
2022/10/25 01:42:33;;;;;;;23.08;11.65;;;;;;;;;;5105007;27;20095;-71
2022/10/25 01:45:02;;;;;;;26.08;11.68;;;;;;;;;;5116987;27;20054;-71
2022/10/25 01:47:34;;;;;;;25.10;11.50;;;;;;;;;;5115551;27;20383;-71
2022/10/25 01:50:08;;;;;;;27.85;11.85;;;;;;;;;;5115759;27;20049;-71
2022/10/25 01:52:34;;;;;;;25.50;12.10;;;;;;;;;;5116241;27;20039;-71
2022/10/25 01:55:00;;;;;;;28.42;11.80;;;;;;;;;;5107959;27;20095;-72
2022/10/25 01:57:55;;;;;;;24.40;12.05;;;;;;;;;;5116733;27;20047;-72
2022/10/25 02:00:23;;;;;;;24.85;11.07;;;;;;;;;;5130344;27;20439;-71
2022/10/25 02:02:49;;;;;;;23.50;11.52;;;;;;;;;;5098133;27;20042;-71
2022/10/25 02:05:20;;;;;;;25.35;12.30;;;;;;;;;;5109725;27;20035;-71
2022/10/25 02:08:02;;;;;;;25.95;11.48;;;;;;;;;;5115721;27;20047;-71
2022/10/25 02:10:37;;;;;;;27.08;11.48;;;;;;;;;;5098980;27;20042;-79
2022/10/25 02:13:03;;;;;;;22.42;11.35;;;;;;;;;;5115577;27;20027;-79
2022/10/25 02:15:32;;;;;;;27.05;12.13;;;;;;;;;;5121336;27;20092;-79
2022/10/25 02:17:59;;;;;;;27.95;12.10;;;;;;;;;;5099009;27;20074;-79
2022/10/25 02:20:26;;;;;;;25.73;11.40;;;;;;;;;;5116631;27;20051;-78
2022/10/25 02:22:53;;;;;;;27.38;12.25;;;;;;;;;;5116041;27;20039;-78
2022/10/25 02:25:21;;;;;;;31.10;12.05;;;;;;;;;;5098720;27;20047;-71
2022/10/25 02:27:50;;;;;;;36.42;12.52;;;;;;;;;;5116167;27;20038;-70
2022/10/25 02:30:16;;;;;;;27.63;11.57;;;;;;;;;;5124825;27;20062;-71
2022/10/25 02:32:42;;;;;;;26.15;11.65;;;;;;;;;;5102387;27;20491;-70
2022/10/25 02:35:14;;;;;;;32.33;11.80;;;;;;;;;;5114908;27;20043;-71
2022/10/25 02:37:40;;;;;;;28.42;11.52;;;;;;;;;;5128968;27;20125;-71
2022/10/25 02:40:06;;;;;;;22.25;10.55;;;;;;;;;;5102254;27;20591;-78
2022/10/25 02:42:32;;;;;;;22.95;10.88;;;;;;;;;;5134548;27;20088;-78
2022/10/25 02:44:59;;;;;;;21.33;10.30;;;;;;;;;;5096282;28;20492;-78
2022/10/25 02:47:25;;;;;;;25.73;10.50;;;;;;;;;;5118268;27;20429;-78
2022/10/25 02:49:51;;;;;;;25.20;10.80;;;;;;;;;;5115869;27;20035;-78
2022/10/25 02:52:17;;;;;;;28.63;11.63;;;;;;;;;;5117696;27;20546;-78
2022/10/25 02:54:43;;;;;;;27.67;11.30;;;;;;;;;;5134542;27;20487;-78
2022/10/25 02:57:09;;;;;;;32.95;12.85;;;;;;;;;;5116889;27;20047;-78
2022/10/25 02:59:35;;;;;;;31.98;12.07;;;;;;;;;;5142928;27;20041;-78
2022/10/25 03:02:01;;;;;;;29.77;12.00;;;;;;;;;;5117479;27;20035;-78
2022/10/25 03:04:27;;;;;;;27.38;12.05;;;;;;;;;;5115024;27;20467;-78
2022/10/25 03:06:53;;;;;;;29.45;11.15;;;;;;;;;;5114518;27;20047;-78
2022/10/25 03:09:19;;;;;;;31.98;12.07;;;;;;;;;;5098697;27;20032;-78
2022/10/25 03:11:45;;;;;;;30.02;11.30;;;;;;;;;;5115778;27;20035;-78
2022/10/25 03:14:11;;;;;;;27.02;11.32;;;;;;;;;;5093963;28;20069;-78
2022/10/25 03:16:37;;;;;;;29.02;10.95;;;;;;;;;;5114563;28;20487;-78
2022/10/25 03:19:03;;;;;;;28.65;11.55;;;;;;;;;;5133771;27;20480;-78
2022/10/25 03:21:30;;;;;;;28.27;11.80;;;;;;;;;;5114154;27;20042;-78
2022/10/25 03:23:56;;;;;;;36.80;12.55;;;;;;;;;;5115842;28;20039;-78
2022/10/25 03:26:22;;;;;;;34.65;11.65;;;;;;;;;;5132783;28;20043;-78
2022/10/25 03:28:48;;;;;;;27.02;11.10;;;;;;;;;;5115713;27;20043;-78
2022/10/25 03:31:15;;;;;;;33.10;11.25;;;;;;;;;;5097198;28;20031;-78
2022/10/25 03:33:41;;;;;;;25.35;11.32;;;;;;;;;;5115059;28;20042;-71
2022/10/25 03:36:07;;;;;;;27.27;10.90;;;;;;;;;;5114261;28;20043;-71
2022/10/25 03:38:33;;;;;;;26.27;11.10;;;;;;;;;;5097527;28;20035;-71
2022/10/25 03:41:00;;;;;;;28.88;10.85;;;;;;;;;;5115486;28;20043;-71
2022/10/25 03:43:26;;;;;;;25.05;10.52;;;;;;;;;;5119420;27;20168;-71
2022/10/25 03:45:52;;;;;;;31.50;11.38;;;;;;;;;;5123187;28;20420;-71
2022/10/25 03:48:18;;;;;;;31.50;11.43;;;;;;;;;;5113857;28;20035;-71
2022/10/25 03:50:44;;;;;;;29.88;11.02;;;;;;;;;;5107667;27;20053;-71
2022/10/25 03:53:11;;;;;;;26.48;10.80;;;;;;;;;;5082703;27;20123;-71
2022/10/25 03:55:37;;;;;;;30.48;11.07;;;;;;;;;;5115478;28;20066;-71
2022/10/25 03:58:03;;;;;;;30.73;10.98;;;;;;;;;;5114398;28;20054;-71
2022/10/25 04:00:29;;;;;;;24.20;10.48;;;;;;;;;;5117422;27;20433;-71
2022/10/25 04:02:56;;;;;;;30.17;11.25;;;;;;;;;;5140775;27;20043;-71
2022/10/25 04:05:22;;;;;;;35.08;11.68;;;;;;;;;;5094136;28;20039;-79
2022/10/25 04:07:49;;;;;;;32.13;11.20;;;;;;;;;;5113964;28;20080;-79
2022/10/25 04:10:15;;;;;;;36.17;11.57;;;;;;;;;;5096347;28;20071;-79
2022/10/25 04:12:41;;;;;;;28.40;10.70;;;;;;;;;;5092194;28;20032;-78
2022/10/25 04:15:07;;;;;;;33.78;10.50;;;;;;;;;;5092749;27;20046;-78
2022/10/25 04:17:33;;;;;;;33.85;11.52;;;;;;;;;;5112040;28;20039;-78
2022/10/25 04:19:59;;;;;;;26.67;11.50;;;;;;;;;;5093437;28;20043;-78
2022/10/25 04:22:25;;;;;;;37.42;12.02;;;;;;;;;;5111867;28;20039;-78
2022/10/25 04:24:51;;;;;;;32.33;11.50;;;;;;;;;;5102423;27;20040;-78
2022/10/25 04:27:17;;;;;;;29.35;11.90;;;;;;;;;;5107470;28;20035;-79
2022/10/25 04:29:43;;;;;;;32.33;12.10;;;;;;;;;;5088089;27;20073;-70
2022/10/25 04:32:10;;;;;;;32.92;11.65;;;;;;;;;;5102265;28;20032;-71
2022/10/25 04:34:36;;;;;;;31.52;11.98;;;;;;;;;;5080156;28;20047;-71
2022/10/25 04:37:02;;;;;;;31.98;11.63;;;;;;;;;;5116653;27;20039;-71
2022/10/25 04:39:28;;;;;;;33.15;10.85;;;;;;;;;;5111779;27;20041;-71
2022/10/25 04:41:55;;;;;;;38.53;11.77;;;;;;;;;;5110592;27;20038;-71
2022/10/25 04:44:21;;;;;;;34.67;11.68;;;;;;;;;;5135426;27;20155;-71
2022/10/25 04:46:47;;;;;;;30.75;11.13;;;;;;;;;;5118566;27;20038;-79
2022/10/25 04:49:13;;;;;;;29.08;11.30;;;;;;;;;;5117536;27;20092;-78
2022/10/25 04:51:39;;;;;;;29.42;11.20;;;;;;;;;;5124754;27;20031;-78
2022/10/25 04:54:05;;;;;;;35.90;11.70;;;;;;;;;;5117263;27;20050;-78
2022/10/25 04:56:32;;;;;;;30.02;10.52;;;;;;;;;;5100022;27;20062;-78
2022/10/25 04:58:58;;;;;;;41.78;11.40;;;;;;;;;;5148104;27;20043;-78
2022/10/25 05:01:24;;;;;;;31.55;11.10;;;;;;;;;;5100932;27;20038;-78
2022/10/25 05:03:50;;;;;;;28.35;10.52;;;;;;;;;;5116870;27;20039;-78
2022/10/25 05:06:18;;;;;;;31.92;11.30;;;;;;;;;;5116263;27;20035;-77
2022/10/25 05:08:45;;;;;;;26.92;10.60;;;;;;;;;;5118245;27;20487;-71
2022/10/25 05:11:12;;;;;;;34.33;11.40;;;;;;;;;;5114957;27;20039;-71
2022/10/25 05:13:39;;;;;;;27.40;10.05;;;;;;;;;;5082372;27;20043;-71
2022/10/25 05:16:05;;;;;;;29.88;9.18;;;;;;;;;;5101509;27;20075;-71
2022/10/25 05:18:32;;;;;;;34.05;9.98;;;;;;;;;;5117205;27;20487;-71
2022/10/25 05:20:59;;;;;;;24.33;9.82;;;;;;;;;;5109890;27;20038;-71
2022/10/25 05:23:26;;;;;;;23.73;9.88;;;;;;;;;;5095999;28;20046;-71
2022/10/25 05:26:03;;;;;;;26.42;9.32;;;;;;;;;;5096060;28;20115;-71
2022/10/25 05:28:29;;;;;;;27.50;9.98;;;;;;;;;;5103100;27;20601;-71
2022/10/25 05:30:55;;;;;;;23.92;9.40;;;;;;;;;;5104298;27;20046;-71
2022/10/25 05:33:21;;;;;;;25.20;9.00;;;;;;;;;;5088803;28;20043;-71
2022/10/25 05:35:47;;;;;;;28.15;8.82;;;;;;;;;;5120845;27;20072;-71
2022/10/25 05:38:13;;;;;;;22.98;8.85;;;;;;;;;;5083925;27;20387;-71
2022/10/25 05:40:40;;;;;;;23.13;8.80;;;;;;;;;;5102818;27;20035;-71
2022/10/25 05:43:06;;;;;;;21.80;8.90;;;;;;;;;;5133957;27;20062;-71
2022/10/25 05:45:32;;;;;;;25.38;8.50;;;;;;;;;;5116609;27;20047;-71
2022/10/25 05:47:58;;;;;;;24.27;7.97;;;;;;;;;;5134658;27;20045;-71
2022/10/25 05:50:24;;;;;;;24.52;8.27;;;;;;;;;;5118170;27;20035;-71
2022/10/25 05:52:52;;;;;;;22.23;7.57;;;;;;;;;;5104695;27;20084;-71
2022/10/25 05:55:18;;;;;;;20.77;7.88;;;;;;;;;;5124572;27;20471;-71
2022/10/25 05:57:49;;;;;;;21.67;7.43;;;;;;;;;;5095884;28;20488;-71
2022/10/25 06:00:15;;;;;;;22.00;8.15;;;;;;;;;;5106017;27;20039;-71
2022/10/25 06:02:41;;;;;;;23.35;7.60;;;;;;;;;;5095418;28;20480;-71
2022/10/25 06:05:08;;;;;;;22.45;7.60;;;;;;;;;;5087118;27;20492;-71
2022/10/25 06:07:34;;;;;;;26.83;8.35;;;;;;;;;;5094510;28;20066;-71
2022/10/25 06:10:00;;;;;;;27.88;9.55;;;;;;;;;;5106923;27;20066;-78
2022/10/25 06:12:26;;;;;;;26.95;8.30;;;;;;;;;;5103082;27;20036;-78
2022/10/25 06:14:52;;;;;;;21.50;8.00;;;;;;;;;;5095464;28;20143;-78
2022/10/25 06:17:18;;;;;;;23.15;8.25;;;;;;;;;;5095123;28;20422;-78
2022/10/25 06:19:44;;;;;;;26.08;8.45;;;;;;;;;;5118232;27;20035;-71
2022/10/25 06:22:10;;;;;;;22.88;9.10;;;;;;;;;;5100612;28;20071;-71
2022/10/25 06:24:36;;;;;;;27.05;9.07;;;;;;;;;;5075168;28;20039;-71
2022/10/25 06:27:02;;;;;;;30.60;8.60;;;;;;;;;;5098179;28;20040;-71
2022/10/25 06:29:29;;;;;;;27.77;8.90;;;;;;;;;;5070789;27;20043;-71
2022/10/25 06:31:55;;;;;;;31.58;8.77;;;;;;;;;;5100058;27;20039;-71
2022/10/25 06:34:21;;;;;;;33.88;10.57;;;;;;;;;;5103958;27;20046;-71
2022/10/25 06:36:47;;;;;;;29.42;9.57;;;;;;;;;;5134956;27;20046;-71
2022/10/25 06:39:13;;;;;;;26.73;9.65;;;;;;;;;;5095005;27;20042;-71
2022/10/25 06:41:39;;;;;;;30.95;9.85;;;;;;;;;;5115170;27;20483;-71
2022/10/25 06:44:06;;;;;;;26.83;9.35;;;;;;;;;;5090908;27;20044;-71
2022/10/25 06:46:33;;;;;;;31.98;10.55;;;;;;;;;;5110939;27;20040;-71
2022/10/25 06:49:00;;;;;;;26.00;9.18;;;;;;;;;;5082241;28;20428;-71
2022/10/25 06:51:27;;;;;;;44.45;10.45;;;;;;;;;;5112425;27;20399;-71
2022/10/25 06:53:57;;;;;;;31.50;9.27;;;;;;;;;;5107854;27;20097;-72
2022/10/25 06:56:23;;;;;;;32.40;10.50;;;;;;;;;;5084187;28;20043;-72
2022/10/25 06:58:50;;;;;;;28.00;9.45;;;;;;;;;;5094784;28;20032;-72
2022/10/25 07:01:17;;;;;;;29.90;10.10;;;;;;;;;;5105055;27;20067;-72
2022/10/25 07:03:43;;;;;;;27.90;10.38;;;;;;;;;;5105845;28;20495;-72
2022/10/25 07:06:21;;;;;;;35.72;9.98;;;;;;;;;;5107289;27;20054;-78
2022/10/25 07:08:47;;;;;;;32.15;9.68;;;;;;;;;;5110304;27;20454;-79
2022/10/25 07:11:14;;;;;;;28.92;8.95;;;;;;;;;;5085750;28;20035;-79
2022/10/25 07:13:41;;;;;;;26.75;8.15;;;;;;;;;;5114311;27;20035;-79
2022/10/25 07:16:08;;;;;;;26.30;8.23;;;;;;;;;;5077812;28;20043;-79
2022/10/25 07:18:35;;;;;;;24.33;7.72;;;;;;;;;;5093367;28;20048;-78
2022/10/25 07:21:01;;;;;;;27.85;8.05;;;;;;;;;;5084626;28;20110;-78
2022/10/25 07:23:28;;;;;;;21.10;7.65;;;;;;;;;;5101426;28;20168;-79
2022/10/25 07:25:54;;;;;;;23.58;7.75;;;;;;;;;;5106612;28;20039;-79
2022/10/25 07:28:20;;;;;;;23.35;7.45;;;;;;;;;;5130152;28;20031;-78
2022/10/25 07:30:47;;;;;;;26.42;8.13;;;;;;;;;;5081960;28;20039;-79
2022/10/25 07:33:14;;;;;;;23.25;8.20;;;;;;;;;;5094911;28;20509;-79
2022/10/25 07:35:43;;;;;;;21.95;7.68;;;;;;;;;;5107205;28;20106;-77
2022/10/25 07:38:09;;;;;;;27.05;9.07;;;;;;;;;;5128193;27;20415;-76
2022/10/25 07:40:35;;;;;;;27.05;7.82;;;;;;;;;;5106526;28;20043;-76
2022/10/25 07:43:02;;;;;;;28.17;9.15;;;;;;;;;;5113774;28;20046;-76
2022/10/25 07:45:28;;;;;;;27.17;9.15;;;;;;;;;;5133576;27;20043;-75
2022/10/25 07:47:54;;;;;;;34.53;9.77;;;;;;;;;;5114697;28;20046;-78
2022/10/25 07:50:20;;;;;;;29.38;10.13;;;;;;;;;;5114722;28;20085;-78
2022/10/25 07:52:46;;;;;;;31.90;10.07;;;;;;;;;;5133156;28;20158;-80
2022/10/25 07:55:12;;;;;;;30.60;11.32;;;;;;;;;;5129627;28;20024;-80
2022/10/25 07:57:39;;;;;;;29.67;9.77;;;;;;;;;;5129445;27;20041;-77
2022/10/25 08:00:06;;;;;;;34.33;10.98;;;;;;;;;;5094927;28;20185;-76
2022/10/25 08:02:32;;;;;;;31.83;10.18;;;;;;;;;;5094596;28;20369;-73
2022/10/25 08:04:58;;;;;;;28.40;10.57;;;;;;;;;;5091735;28;20416;-73
2022/10/25 08:07:24;;;;;;;30.45;11.77;;;;;;;;;;5105431;27;20060;-76
2022/10/25 08:09:51;;;;;;;34.40;11.52;;;;;;;;;;5088027;28;20055;-77
2022/10/25 08:12:17;;;;;;;36.80;12.30;;;;;;;;;;5097666;28;20043;-77
2022/10/25 08:14:43;;;;;;;32.35;12.32;;;;;;;;;;5109121;27;20079;-79
2022/10/25 08:17:09;;;;;;;28.30;12.07;;;;;;;;;;5104667;27;20044;-74
2022/10/25 08:19:35;;;;;;;32.08;11.95;;;;;;;;;;5112860;28;20039;-79
2022/10/25 08:22:01;;;;;;;30.50;11.75;;;;;;;;;;5115387;28;20077;-80
2022/10/25 08:24:28;;;;;;;27.58;11.63;;;;;;;;;;5083825;28;20043;-79
2022/10/25 08:26:54;;;;;;;26.33;11.38;;;;;;;;;;5111643;27;20039;-79
2022/10/25 08:29:20;;;;;;;34.75;11.98;;;;;;;;;;5113631;27;20040;-79
2022/10/25 08:31:46;;;;;;;33.20;11.07;;;;;;;;;;5117467;27;20126;-79
2022/10/25 08:34:12;;;;;;;26.52;10.73;;;;;;;;;;5103243;27;20046;-79
2022/10/25 08:36:38;;;;;;;25.38;10.43;;;;;;;;;;5099756;28;20044;-79
2022/10/25 08:39:04;;;;;;;21.70;10.73;;;;;;;;;;5128530;27;20071;-79
2022/10/25 08:41:33;;;;;;;27.95;11.68;;;;;;;;;;5104481;27;20041;-79
2022/10/25 08:44:07;;;;;;;25.52;10.23;;;;;;;;;;5088306;27;20045;-80
2022/10/25 08:46:39;;;;;;;26.15;9.52;;;;;;;;;;5106554;27;20133;-79
2022/10/25 08:49:25;;;;;;;23.10;9.23;;;;;;;;;;5116711;27;20501;-79
2022/10/25 08:51:52;;;;;;;25.65;9.65;;;;;;;;;;5118301;27;20122;-79
2022/10/25 08:54:30;;;;;;;21.38;8.57;;;;;;;;;;5120775;27;20487;-79
2022/10/25 08:57:15;;;;;;;19.70;7.78;;;;;;;;;;5117743;27;20511;-74
2022/10/25 08:59:42;;;;;;;12.88;6.95;;;;;;;;;;5104617;27;20050;-74
2022/10/25 09:02:15;;;;;;;15.27;6.90;;;;;;;;;;5114533;27;20048;-74
2022/10/25 09:04:42;;;;;;;20.10;6.55;;;;;;;;;;5096710;28;20172;-74
2022/10/25 09:07:25;;;;;;;13.10;6.05;;;;;;;;;;5090936;27;20075;-74
2022/10/25 09:09:58;;;;;;;13.82;6.05;;;;;;;;;;5101531;28;20050;-74
2022/10/25 09:12:39;;;;;;;14.73;5.63;;;;;;;;;;5112770;27;20140;-81
2022/10/25 09:15:08;;;;;;;13.88;5.63;;;;;;;;;;5114451;28;20040;-80
2022/10/25 09:17:39;;;;;;;11.70;5.28;;;;;;;;;;5095206;27;20073;-80
2022/10/25 09:20:05;;;;;;;10.52;5.30;;;;;;;;;;5103341;27;20062;-80
2022/10/25 09:22:38;;;;;;;15.40;5.40;;;;;;;;;;5097172;28;20051;-80
2022/10/25 09:25:25;;;;;;;14.07;4.60;;;;;;;;;;5105566;27;20081;-81
2022/10/25 09:28:05;;;;;;;14.73;4.32;;;;;;;;;;5127488;27;20043;-80
2022/10/25 09:30:36;;;;;;;13.07;5.28;;;;;;;;;;5109304;27;20047;-79
2022/10/25 09:33:03;;;;;;;16.83;5.03;;;;;;;;;;5118424;27;20043;-78
2022/10/25 09:35:39;;;;;;;15.85;5.13;;;;;;;;;;5098105;27;20054;-80
2022/10/25 09:38:09;;;;;;;12.70;5.45;;;;;;;;;;5110943;27;20162;-79
2022/10/25 09:40:42;;;;;;;13.95;5.50;;;;;;;;;;5125313;27;20440;-78
2022/10/25 09:43:16;;;;;;;14.98;5.43;;;;;;;;;;5133418;27;20293;-78
2022/10/25 09:45:50;;;;;;;17.77;5.75;;;;;;;;;;5123796;27;20047;-80
2022/10/25 09:48:32;;;;;;;14.63;7.18;;;;;;;;;;5118333;27;20508;-79
2022/10/25 09:51:20;;;;;;;13.80;5.50;;;;;;;;;;5115519;27;20125;-79
2022/10/25 09:53:46;;;;;;;18.17;5.60;;;;;;;;;;5135446;27;20042;-78
2022/10/25 09:56:12;;;;;;;12.15;5.65;;;;;;;;;;5104059;27;20043;-80
2022/10/25 09:58:39;;;;;;;15.90;6.70;;;;;;;;;;5102421;27;20544;-80
2022/10/25 10:01:08;;;;;;;17.48;6.53;;;;;;;;;;5098435;27;20038;-80
2022/10/25 10:03:35;;;;;;;19.45;6.38;;;;;;;;;;5108847;27;20507;-80
2022/10/25 10:06:03;;;;;;;11.70;6.18;;;;;;;;;;5114078;27;20072;-80
2022/10/25 10:08:32;;;;;;;16.52;5.88;;;;;;;;;;5122782;27;20047;-80
2022/10/25 10:10:59;;;;;;;17.00;5.78;;;;;;;;;;5086306;27;20031;-80
2022/10/25 10:13:42;;;;;;;16.45;6.22;;;;;;;;;;5090788;28;20331;-80
2022/10/25 10:16:35;;;;;;;14.10;5.53;;;;;;;;;;5094596;28;20040;-80
2022/10/25 10:19:14;;;;;;;15.30;5.65;;;;;;;;;;5092737;28;20054;-80
2022/10/25 10:21:48;;;;;;;13.95;5.53;;;;;;;;;;5095429;28;20044;-79
2022/10/25 10:24:17;;;;;;;13.15;5.70;;;;;;;;;;5089439;28;20074;-80
2022/10/25 10:26:45;;;;;;;11.70;6.10;;;;;;;;;;5102006;28;20050;-80
2022/10/25 10:29:20;;;;;;;12.48;5.88;;;;;;;;;;5096676;28;20046;-80
2022/10/25 10:32:00;;;;;;;12.82;5.75;;;;;;;;;;5114561;27;20028;-79
2022/10/25 10:34:30;;;;;;;16.20;5.65;;;;;;;;;;5114228;27;20040;-80
2022/10/25 10:37:12;;;;;;;12.90;5.47;;;;;;;;;;5110533;27;20035;-80
2022/10/25 10:39:51;;;;;;;13.13;5.00;;;;;;;;;;5107525;27;20039;-80
2022/10/25 10:42:19;;;;;;;10.52;5.55;;;;;;;;;;5092789;27;20118;-79
2022/10/25 10:45:06;;;;;;;12.00;5.05;;;;;;;;;;5098852;27;20035;-80
2022/10/25 10:47:37;;;;;;;10.88;5.18;;;;;;;;;;5110049;27;20075;-80
2022/10/25 10:50:34;;;;;;;12.32;5.53;;;;;;;;;;5101471;28;20036;-80
2022/10/25 10:53:02;;;;;;;13.07;5.15;;;;;;;;;;5083087;27;20040;-80
2022/10/25 10:55:37;;;;;;;14.02;4.57;;;;;;;;;;5113948;27;20056;-80
2022/10/25 10:58:05;;;;;;;13.35;6.03;;;;;;;;;;5112663;27;20086;-72
2022/10/25 11:00:32;;;;;;;8.82;4.10;;;;;;;;;;5121692;27;20494;-73
2022/10/25 11:02:58;;;;;;;13.00;4.35;;;;;;;;;;5094022;28;20437;-73
2022/10/25 11:05:24;;;;;;;12.43;4.30;;;;;;;;;;5104811;27;20082;-72
2022/10/25 11:07:58;;;;;;;11.20;4.47;;;;;;;;;;5129562;27;20091;-72
2022/10/25 11:10:26;;;;;;;13.35;3.95;;;;;;;;;;5099073;28;20120;-73
2022/10/25 11:13:27;;;;;;;10.63;3.67;;;;;;;;;;5098405;27;20031;-72
2022/10/25 11:15:53;;;;;;;10.73;3.90;;;;;;;;;;4995176;28;20037;-72
2022/10/25 11:18:22;;;;;;;8.77;3.80;;;;;;;;;;5104497;27;20042;-73
2022/10/25 11:20:52;;;;;;;10.85;3.90;;;;;;;;;;5093103;28;20043;-72
2022/10/25 11:23:24;;;;;;;10.45;4.20;;;;;;;;;;5101546;27;20050;-72
2022/10/25 11:25:56;;;;;;;11.10;4.20;;;;;;;;;;5110299;27;20526;-72
2022/10/25 11:28:22;;;;;;;12.27;4.18;;;;;;;;;;5148402;27;20038;-72
2022/10/25 11:30:48;;;;;;;9.35;4.00;;;;;;;;;;5133145;27;20056;-73
2022/10/25 11:33:14;;;;;;;12.15;4.53;;;;;;;;;;5098631;27;20388;-72
2022/10/25 11:35:40;;;;;;;11.48;4.70;;;;;;;;;;5114646;28;20572;-72
2022/10/25 11:38:17;;;;;;;8.35;4.07;;;;;;;;;;5118936;27;20050;-73
2022/10/25 11:41:07;;;;;;;8.88;4.32;;;;;;;;;;5118650;27;20046;-72
2022/10/25 11:43:39;;;;;;;8.55;4.82;;;;;;;;;;5110756;27;20054;-72
2022/10/25 11:46:10;;;;;;;10.07;4.32;;;;;;;;;;5118004;27;20039;-73
2022/10/25 11:48:56;;;;;;;11.60;4.47;;;;;;;;;;5119574;27;20036;-72
2022/10/25 11:51:43;;;;;;;12.77;3.97;;;;;;;;;;5084475;27;20054;-72
2022/10/25 11:54:15;;;;;;;8.00;3.80;;;;;;;;;;5118198;27;20117;-73
2022/10/25 11:56:57;;;;;;;8.73;4.07;;;;;;;;;;5088169;27;20039;-73
2022/10/25 11:59:24;;;;;;;9.02;3.80;;;;;;;;;;5122078;27;20127;-73
2022/10/25 12:02:09;;;;;;;11.48;4.28;;;;;;;;;;5101471;27;20100;-76
2022/10/25 12:04:41;;;;;;;9.98;4.10;;;;;;;;;;5118276;27;20043;-83
2022/10/25 12:07:16;;;;;;;10.52;4.00;;;;;;;;;;5101465;27;20078;-83
2022/10/25 12:10:01;;;;;;;8.80;3.95;;;;;;;;;;5119813;27;20047;-83
2022/10/25 12:12:35;;;;;;;13.05;3.75;;;;;;;;;;5121710;27;20047;-83
2022/10/25 12:15:02;;;;;;;11.55;3.90;;;;;;;;;;5118230;27;20036;-83
2022/10/25 12:17:30;;;;;;;11.80;4.68;;;;;;;;;;5118625;27;20073;-83
2022/10/25 12:19:57;;;;;;;10.43;4.25;;;;;;;;;;5119067;27;20127;-82
2022/10/25 12:22:25;;;;;;;9.70;4.15;;;;;;;;;;5101034;27;20616;-82
2022/10/25 12:24:59;;;;;;;11.30;4.40;;;;;;;;;;5118222;27;20550;-82
2022/10/25 12:27:26;;;;;;;12.13;4.28;;;;;;;;;;5120990;27;20030;-82
2022/10/25 12:29:54;;;;;;;12.90;4.60;;;;;;;;;;5122764;27;20401;-82
2022/10/25 12:32:22;;;;;;;11.05;4.50;;;;;;;;;;5108668;27;20472;-81
2022/10/25 12:34:54;;;;;;;12.07;4.80;;;;;;;;;;5110605;27;20480;-82
2022/10/25 12:37:35;;;;;;;12.65;4.57;;;;;;;;;;5102837;27;20031;-82
2022/10/25 12:40:01;;;;;;;11.30;4.45;;;;;;;;;;5116031;27;20060;-82
2022/10/25 12:42:30;;;;;;;10.75;4.68;;;;;;;;;;5118150;27;20455;-82
2022/10/25 12:45:18;;;;;;;11.98;4.63;;;;;;;;;;5108099;27;20035;-81
2022/10/25 12:47:47;;;;;;;11.02;4.75;;;;;;;;;;5080589;28;20050;-82
2022/10/25 12:50:32;;;;;;;11.30;4.72;;;;;;;;;;5103567;27;20038;-81
2022/10/25 12:53:07;;;;;;;10.65;4.88;;;;;;;;;;5101725;27;20035;-81
2022/10/25 12:55:33;;;;;;;10.32;4.50;;;;;;;;;;5116335;27;20092;-81
2022/10/25 12:58:06;;;;;;;13.45;4.15;;;;;;;;;;5113324;27;20043;-81
2022/10/25 13:00:40;;;;;;;10.07;4.85;;;;;;;;;;5100526;27;20057;-81
2022/10/25 13:03:24;;;;;;;8.23;4.18;;;;;;;;;;5107168;27;20440;-81
2022/10/25 13:05:56;;;;;;;10.93;4.03;;;;;;;;;;5089637;27;20035;-81
2022/10/25 13:08:23;;;;;;;11.10;4.45;;;;;;;;;;5114748;27;20051;-81
2022/10/25 13:10:56;;;;;;;11.75;5.18;;;;;;;;;;5109566;27;20453;-82
2022/10/25 13:13:27;;;;;;;11.77;4.50;;;;;;;;;;5111065;27;20039;-81
2022/10/25 13:15:55;;;;;;;9.75;4.88;;;;;;;;;;5108824;27;20372;-81
2022/10/25 13:18:34;;;;;;;10.10;4.75;;;;;;;;;;5114783;27;20046;-80
2022/10/25 13:21:04;;;;;;;9.93;4.93;;;;;;;;;;5114803;27;20044;-80
2022/10/25 13:23:48;;;;;;;11.30;4.65;;;;;;;;;;5108719;27;20036;-80
2022/10/25 13:26:18;;;;;;;10.65;4.63;;;;;;;;;;5104544;27;20504;-81
2022/10/25 13:28:45;;;;;;;11.00;4.63;;;;;;;;;;5111557;27;20031;-81
2022/10/25 13:31:29;;;;;;;9.13;4.70;;;;;;;;;;5099298;27;20096;-80
2022/10/25 13:34:14;;;;;;;10.18;4.78;;;;;;;;;;5107311;27;20079;-81
2022/10/25 13:36:53;;;;;;;12.18;4.38;;;;;;;;;;5110188;27;20038;-80
2022/10/25 13:39:35;;;;;;;8.23;4.07;;;;;;;;;;5109650;27;20039;-80
2022/10/25 13:42:22;;;;;;;8.25;3.90;;;;;;;;;;5103993;27;20050;-81
2022/10/25 13:44:58;;;;;;;9.63;3.65;;;;;;;;;;5097818;27;20044;-81
2022/10/25 13:47:33;;;;;;;13.60;4.63;;;;;;;;;;5107260;27;20372;-80
2022/10/25 13:50:00;;;;;;;11.65;4.70;;;;;;;;;;5116591;27;20083;-81
2022/10/25 13:52:31;;;;;;;10.52;4.40;;;;;;;;;;5100919;28;20035;-81
2022/10/25 13:54:57;;;;;;;12.55;4.90;;;;;;;;;;5105056;27;20050;-81
2022/10/25 13:57:42;;;;;;;10.88;4.13;;;;;;;;;;5107692;27;20586;-81
2022/10/25 14:00:26;;;;;;;9.13;4.18;;;;;;;;;;5106941;27;20071;-80
2022/10/25 14:03:01;;;;;;;10.55;4.32;;;;;;;;;;5118265;27;20096;-81
2022/10/25 14:05:46;;;;;;;7.97;3.58;;;;;;;;;;5112855;27;20051;-71
2022/10/25 14:08:28;;;;;;;10.57;4.18;;;;;;;;;;5116608;27;20381;-72
2022/10/25 14:10:54;;;;;;;11.50;3.60;;;;;;;;;;5111812;27;20091;-72
2022/10/25 14:13:25;;;;;;;11.23;3.58;;;;;;;;;;5111313;27;20035;-72
2022/10/25 14:16:00;;;;;;;9.43;3.50;;;;;;;;;;5099982;27;20492;-72
2022/10/25 14:18:28;;;;;;;10.30;3.20;;;;;;;;;;5109517;27;20093;-71
2022/10/25 14:21:00;;;;;;;11.48;3.70;;;;;;;;;;5094918;28;20132;-71
2022/10/25 14:23:29;;;;;;;7.70;3.20;;;;;;;;;;5094655;28;20036;-71
2022/10/25 14:25:59;;;;;;;9.30;3.20;;;;;;;;;;5095019;28;20450;-72
2022/10/25 14:28:29;;;;;;;8.73;3.30;;;;;;;;;;5107644;27;20043;-71
2022/10/25 14:30:56;;;;;;;10.85;3.40;;;;;;;;;;5122438;27;20036;-71
2022/10/25 14:33:32;;;;;;;7.50;3.58;;;;;;;;;;5097437;28;20403;-71
2022/10/25 14:36:04;;;;;;;8.75;3.08;;;;;;;;;;5095198;28;20462;-72
2022/10/25 14:38:31;;;;;;;7.63;2.70;;;;;;;;;;5102106;27;20067;-71
2022/10/25 14:40:59;;;;;;;9.45;3.00;;;;;;;;;;5132027;27;20166;-72